Astrodome, Texas
Current Conditions -  °F | °C
As of 4:55 AM on Sunday 23 Nov 2014 (Local Time) from KMCJ Reporting Station
Few Clouds Few Clouds  
Wind Chill: 59°   Ceiling: Unl
Heat Index: 59°   Visibility: 10mi
Dew Point: 59°   Wind: 9mph
Humidity: 100%   Direction: 200°SSW
Pressure: 29.61"   Gusts: 21mph
Location:  29.6867°N, 95.4345°W
Report Text: KMCJ 231055Z AUTO 20008G18KT 020V030 10SM FEW006 15/15 A2961 RMK AO1
Loading
Personal Weather Stations






























Interactive Weather Map New forecast layout! Learn more

10-Day Weather Forecast

Advertisements
Track Severe Weather on mobile